sensor_id;sensor_type;location;lat;lon;timestamp;P1;durP1;ratioP1;P2;durP2;ratioP2
17340;SDS011;8788;49.930;8.660;2022-09-09T04:06:14;1.98;;;0.88;;
17340;SDS011;8788;49.930;8.660;2022-09-09T04:08:45;1.95;;;0.85;;
17340;SDS011;8788;49.930;8.660;2022-09-09T04:11:14;0.40;;;0.40;;
17340;SDS011;8788;49.930;8.660;2022-09-09T04:13:42;3.50;;;0.85;;
17340;SDS011;8788;49.930;8.660;2022-09-09T04:16:11;0.65;;;0.57;;
17340;SDS011;8788;49.930;8.660;2022-09-09T04:18:41;1.80;;;0.70;;
17340;SDS011;8788;49.930;8.660;2022-09-09T04:21:08;1.70;;;0.90;;
17340;SDS011;8788;49.930;8.660;2022-09-09T04:23:39;1.58;;;0.82;;
17340;SDS011;8788;49.930;8.660;2022-09-09T04:26:06;1.75;;;0.85;;
17340;SDS011;8788;49.930;8.660;2022-09-09T04:28:35;1.27;;;0.82;;
17340;SDS011;8788;49.930;8.660;2022-09-09T04:31:09;2.90;;;1.38;;
17340;SDS011;8788;49.930;8.660;2022-09-09T04:33:39;4.57;;;0.93;;
17340;SDS011;8788;49.930;8.660;2022-09-09T04:36:09;0.80;;;0.55;;
17340;SDS011;8788;49.930;8.660;2022-09-09T04:38:36;3.22;;;1.00;;
17340;SDS011;8788;49.930;8.660;2022-09-09T04:41:05;2.75;;;1.17;;
17340;SDS011;8788;49.930;8.660;2022-09-09T04:43:35;5.68;;;1.10;;
17340;SDS011;8788;49.930;8.660;2022-09-09T04:46:04;2.55;;;0.88;;
17340;SDS011;8788;49.930;8.660;2022-09-09T04:48:32;1.42;;;0.80;;
17340;SDS011;8788;49.930;8.660;2022-09-09T04:51:01;2.35;;;0.63;;
17340;SDS011;8788;49.930;8.660;2022-09-09T04:53:31;2.05;;;0.88;;
17340;SDS011;8788;49.930;8.660;2022-09-09T04:56:04;1.95;;;0.93;;
17340;SDS011;8788;49.930;8.660;2022-09-09T04:58:37;1.15;;;0.90;;
17340;SDS011;8788;49.930;8.660;2022-09-09T05:01:08;3.33;;;0.90;;
17340;SDS011;8788;49.930;8.660;2022-09-09T05:03:39;2.38;;;0.75;;
17340;SDS011;8788;49.930;8.660;2022-09-09T05:06:10;5.85;;;0.77;;
17340;SDS011;8788;49.930;8.660;2022-09-09T05:08:38;1.85;;;0.63;;
17340;SDS011;8788;49.930;8.660;2022-09-09T05:11:14;1.48;;;0.73;;
17340;SDS011;8788;49.930;8.660;2022-09-09T05:13:42;2.25;;;0.75;;
17340;SDS011;8788;49.930;8.660;2022-09-09T05:16:10;6.60;;;1.02;;
17340;SDS011;8788;49.930;8.660;2022-09-09T05:18:37;3.55;;;1.05;;
17340;SDS011;8788;49.930;8.660;2022-09-09T05:21:05;2.17;;;0.75;;
17340;SDS011;8788;49.930;8.660;2022-09-09T05:23:33;1.98;;;0.63;;
17340;SDS011;8788;49.930;8.660;2022-09-09T05:26:00;1.33;;;0.63;;
17340;SDS011;8788;49.930;8.660;2022-09-09T05:28:30;0.75;;;0.63;;
17340;SDS011;8788;49.930;8.660;2022-09-09T05:30:58;2.28;;;0.60;;
17340;SDS011;8788;49.930;8.660;2022-09-09T05:33:29;3.50;;;0.70;;
17340;SDS011;8788;49.930;8.660;2022-09-09T05:35:59;0.55;;;0.40;;
17340;SDS011;8788;49.930;8.660;2022-09-09T05:38:28;3.50;;;0.65;;
17340;SDS011;8788;49.930;8.660;2022-09-09T05:40:56;1.95;;;0.73;;
17340;SDS011;8788;49.930;8.660;2022-09-09T05:43:23;2.63;;;0.60;;
17340;SDS011;8788;49.930;8.660;2022-09-09T05:46:00;3.00;;;0.80;;
17340;SDS011;8788;49.930;8.660;2022-09-09T05:48:29;0.75;;;0.43;;
17340;SDS011;8788;49.930;8.660;2022-09-09T05:50:57;2.35;;;0.75;;
17340;SDS011;8788;49.930;8.660;2022-09-09T05:53:25;1.85;;;0.88;;
17340;SDS011;8788;49.930;8.660;2022-09-09T05:55:59;1.95;;;0.80;;
17340;SDS011;8788;49.930;8.660;2022-09-09T05:58:29;1.77;;;0.70;;
17340;SDS011;8788;49.930;8.660;2022-09-09T06:01:01;0.93;;;0.50;;
17340;SDS011;8788;49.930;8.660;2022-09-09T06:03:33;3.75;;;1.15;;
17340;SDS011;8788;49.930;8.660;2022-09-09T06:06:01;3.03;;;1.02;;
17340;SDS011;8788;49.930;8.660;2022-09-09T06:08:32;1.67;;;0.63;;
17340;SDS011;8788;49.930;8.660;2022-09-09T06:11:03;1.50;;;0.63;;
17340;SDS011;8788;49.930;8.660;2022-09-09T06:13:32;2.55;;;0.60;;
17340;SDS011;8788;49.930;8.660;2022-09-09T06:16:01;1.70;;;0.73;;
17340;SDS011;8788;49.930;8.660;2022-09-09T06:18:30;1.23;;;0.60;;
17340;SDS011;8788;49.930;8.660;2022-09-09T06:20:57;2.92;;;0.68;;
17340;SDS011;8788;49.930;8.660;2022-09-09T06:23:26;0.57;;;0.57;;
17340;SDS011;8788;49.930;8.660;2022-09-09T06:26:04;2.53;;;0.68;;
17340;SDS011;8788;49.930;8.660;2022-09-09T06:28:34;4.80;;;0.90;;
17340;SDS011;8788;49.930;8.660;2022-09-09T06:31:03;1.13;;;0.60;;
17340;SDS011;8788;49.930;8.660;2022-09-09T06:33:32;1.73;;;0.80;;
17340;SDS011;8788;49.930;8.660;2022-09-09T06:36:02;1.23;;;0.63;;
17340;SDS011;8788;49.930;8.660;2022-09-09T06:38:31;1.25;;;0.63;;
17340;SDS011;8788;49.930;8.660;2022-09-09T06:40:59;2.45;;;0.73;;
17340;SDS011;8788;49.930;8.660;2022-09-09T06:43:28;2.25;;;0.70;;
17340;SDS011;8788;49.930;8.660;2022-09-09T06:45:55;2.20;;;0.90;;
17340;SDS011;8788;49.930;8.660;2022-09-09T06:48:24;3.95;;;0.70;;
17340;SDS011;8788;49.930;8.660;2022-09-09T06:51:00;2.15;;;0.50;;
17340;SDS011;8788;49.930;8.660;2022-09-09T06:53:28;5.43;;;0.80;;
17340;SDS011;8788;49.930;8.660;2022-09-09T06:55:59;3.03;;;0.75;;
17340;SDS011;8788;49.930;8.660;2022-09-09T06:58:28;2.45;;;0.95;;
17340;SDS011;8788;49.930;8.660;2022-09-09T07:01:01;1.88;;;0.70;;
17340;SDS011;8788;49.930;8.660;2022-09-09T07:03:31;2.55;;;0.65;;
17340;SDS011;8788;49.930;8.660;2022-09-09T07:05:59;1.90;;;0.82;;
17340;SDS011;8788;49.930;8.660;2022-09-09T07:08:27;2.35;;;1.00;;
17340;SDS011;8788;49.930;8.660;2022-09-09T07:11:01;2.50;;;0.88;;
17340;SDS011;8788;49.930;8.660;2022-09-09T07:13:31;2.47;;;0.85;;
17340;SDS011;8788;49.930;8.660;2022-09-09T07:16:02;3.50;;;0.82;;
17340;SDS011;8788;49.930;8.660;2022-09-09T07:18:32;2.22;;;0.75;;
17340;SDS011;8788;49.930;8.660;2022-09-09T07:21:00;5.90;;;0.85;;
17340;SDS011;8788;49.930;8.660;2022-09-09T07:23:29;2.03;;;0.65;;
17340;SDS011;8788;49.930;8.660;2022-09-09T07:25:57;1.88;;;0.80;;
17340;SDS011;8788;49.930;8.660;2022-09-09T07:28:25;2.38;;;0.93;;
17340;SDS011;8788;49.930;8.660;2022-09-09T07:30:54;0.98;;;0.50;;
17340;SDS011;8788;49.930;8.660;2022-09-09T07:33:22;2.25;;;1.05;;
17340;SDS011;8788;49.930;8.660;2022-09-09T07:35:51;8.60;;;1.10;;
17340;SDS011;8788;49.930;8.660;2022-09-09T07:38:18;3.20;;;0.93;;
17340;SDS011;8788;49.930;8.660;2022-09-09T07:40:47;4.10;;;0.95;;
17340;SDS011;8788;49.930;8.660;2022-09-09T07:43:14;1.17;;;0.80;;
17340;SDS011;8788;49.930;8.660;2022-09-09T07:45:42;1.60;;;0.60;;
17340;SDS011;8788;49.930;8.660;2022-09-09T07:48:09;2.03;;;1.15;;
17340;SDS011;8788;49.930;8.660;2022-09-09T07:50:37;2.25;;;0.93;;
17340;SDS011;8788;49.930;8.660;2022-09-09T07:53:06;1.38;;;0.45;;
17340;SDS011;8788;49.930;8.660;2022-09-09T07:55:33;3.47;;;0.82;;
17340;SDS011;8788;49.930;8.660;2022-09-09T07:58:00;5.30;;;0.70;;
17340;SDS011;8788;49.930;8.660;2022-09-09T08:00:28;2.67;;;0.90;;
17340;SDS011;8788;49.930;8.660;2022-09-09T08:02:56;1.60;;;0.73;;
17340;SDS011;8788;49.930;8.660;2022-09-09T08:05:27;2.20;;;0.82;;
17340;SDS011;8788;49.930;8.660;2022-09-09T08:07:54;4.10;;;1.08;;
17340;SDS011;8788;49.930;8.660;2022-09-09T08:10:23;1.73;;;0.60;;
17340;SDS011;8788;49.930;8.660;2022-09-09T08:12:52;2.83;;;0.70;;
17340;SDS011;8788;49.930;8.660;2022-09-09T08:15:20;2.03;;;1.00;;
17340;SDS011;8788;49.930;8.660;2022-09-09T08:17:47;2.53;;;0.70;;
17340;SDS011;8788;49.930;8.660;2022-09-09T08:20:15;2.67;;;0.70;;
17340;SDS011;8788;49.930;8.660;2022-09-09T08:22:42;2.35;;;0.70;;
17340;SDS011;8788;49.930;8.660;2022-09-09T08:25:09;1.98;;;0.60;;
17340;SDS011;8788;49.930;8.660;2022-09-09T08:27:38;1.35;;;0.60;;
17340;SDS011;8788;49.930;8.660;2022-09-09T08:30:06;4.57;;;1.00;;
17340;SDS011;8788;49.930;8.660;2022-09-09T08:32:34;3.92;;;0.90;;
17340;SDS011;8788;49.930;8.660;2022-09-09T08:35:01;2.97;;;0.73;;
17340;SDS011;8788;49.930;8.660;2022-09-09T08:37:29;0.88;;;0.63;;
17340;SDS011;8788;49.930;8.660;2022-09-09T08:39:57;2.53;;;0.70;;
17340;SDS011;8788;49.930;8.660;2022-09-09T08:42:29;2.78;;;0.80;;
17340;SDS011;8788;49.930;8.660;2022-09-09T08:45:09;3.65;;;0.88;;
17340;SDS011;8788;49.930;8.660;2022-09-09T08:47:47;2.13;;;0.70;;
17340;SDS011;8788;49.930;8.660;2022-09-09T08:50:24;5.75;;;1.20;;
17340;SDS011;8788;49.930;8.660;2022-09-09T08:53:00;3.55;;;0.60;;
17340;SDS011;8788;49.930;8.660;2022-09-09T08:55:35;3.83;;;0.90;;
17340;SDS011;8788;49.930;8.660;2022-09-09T08:58:12;5.90;;;0.85;;
17340;SDS011;8788;49.930;8.660;2022-09-09T09:00:54;2.92;;;0.70;;
17340;SDS011;8788;49.930;8.660;2022-09-09T09:03:51;1.98;;;0.70;;
17340;SDS011;8788;49.930;8.660;2022-09-09T09:06:26;3.53;;;0.77;;
17340;SDS011;8788;49.930;8.660;2022-09-09T09:09:08;5.35;;;0.75;;
17340;SDS011;8788;49.930;8.660;2022-09-09T09:11:43;3.20;;;0.80;;
17340;SDS011;8788;49.930;8.660;2022-09-09T09:14:15;1.98;;;0.70;;
17340;SDS011;8788;49.930;8.660;2022-09-09T09:16:51;1.80;;;0.90;;
17340;SDS011;8788;49.930;8.660;2022-09-09T09:19:21;3.70;;;0.80;;
17340;SDS011;8788;49.930;8.660;2022-09-09T09:21:53;3.40;;;0.90;;
17340;SDS011;8788;49.930;8.660;2022-09-09T09:24:25;2.20;;;0.90;;
17340;SDS011;8788;49.930;8.660;2022-09-09T09:27:06;4.43;;;1.15;;
17340;SDS011;8788;49.930;8.660;2022-09-09T09:29:40;5.43;;;0.85;;
17340;SDS011;8788;49.930;8.660;2022-09-09T09:32:12;2.28;;;0.88;;
17340;SDS011;8788;49.930;8.660;2022-09-09T09:34:47;4.43;;;1.20;;
17340;SDS011;8788;49.930;8.660;2022-09-09T09:37:16;0.70;;;0.70;;
17340;SDS011;8788;49.930;8.660;2022-09-09T09:39:47;6.07;;;1.13;;
17340;SDS011;8788;49.930;8.660;2022-09-09T09:42:15;2.25;;;1.02;;
17340;SDS011;8788;49.930;8.660;2022-09-09T09:44:46;3.58;;;0.65;;
17340;SDS011;8788;49.930;8.660;2022-09-09T09:47:19;2.78;;;1.00;;
17340;SDS011;8788;49.930;8.660;2022-09-09T09:50:16;2.38;;;0.95;;
17340;SDS011;8788;49.930;8.660;2022-09-09T09:52:53;3.50;;;1.08;;
17340;SDS011;8788;49.930;8.660;2022-09-09T09:55:22;2.70;;;1.23;;
17340;SDS011;8788;49.930;8.660;2022-09-09T09:57:50;6.95;;;1.00;;
17340;SDS011;8788;49.930;8.660;2022-09-09T10:00:20;4.32;;;0.77;;
17340;SDS011;8788;49.930;8.660;2022-09-09T10:03:14;3.10;;;0.90;;
17340;SDS011;8788;49.930;8.660;2022-09-09T10:05:50;3.88;;;0.90;;
17340;SDS011;8788;49.930;8.660;2022-09-09T10:08:17;3.40;;;0.55;;
17340;SDS011;8788;49.930;8.660;2022-09-09T10:10:48;3.40;;;0.82;;
17340;SDS011;8788;49.930;8.660;2022-09-09T10:13:38;3.28;;;0.93;;
17340;SDS011;8788;49.930;8.660;2022-09-09T10:16:19;1.63;;;0.50;;
17340;SDS011;8788;49.930;8.660;2022-09-09T10:18:59;2.72;;;0.52;;
17340;SDS011;8788;49.930;8.660;2022-09-09T10:21:37;4.07;;;0.60;;
17340;SDS011;8788;49.930;8.660;2022-09-09T10:24:27;2.50;;;0.47;;
17340;SDS011;8788;49.930;8.660;2022-09-09T10:27:11;2.17;;;0.77;;
17340;SDS011;8788;49.930;8.660;2022-09-09T10:29:49;3.85;;;0.60;;
17340;SDS011;8788;49.930;8.660;2022-09-09T10:32:37;2.38;;;0.82;;
17340;SDS011;8788;49.930;8.660;2022-09-09T10:35:14;1.55;;;0.80;;
17340;SDS011;8788;49.930;8.660;2022-09-09T10:38:00;3.63;;;0.65;;
17340;SDS011;8788;49.930;8.660;2022-09-09T10:40:47;1.92;;;0.57;;
17340;SDS011;8788;49.930;8.660;2022-09-09T10:43:31;1.42;;;0.60;;
17340;SDS011;8788;49.930;8.660;2022-09-09T10:46:10;3.55;;;0.60;;
17340;SDS011;8788;49.930;8.660;2022-09-09T10:48:48;1.88;;;0.73;;
17340;SDS011;8788;49.930;8.660;2022-09-09T10:51:30;2.30;;;0.65;;
17340;SDS011;8788;49.930;8.660;2022-09-09T10:54:07;1.30;;;0.73;;
17340;SDS011;8788;49.930;8.660;2022-09-09T10:56:44;1.52;;;0.98;;
17340;SDS011;8788;49.930;8.660;2022-09-09T10:59:20;5.32;;;0.80;;
17340;SDS011;8788;49.930;8.660;2022-09-09T11:01:51;1.75;;;0.95;;
17340;SDS011;8788;49.930;8.660;2022-09-09T11:04:23;4.20;;;1.00;;
17340;SDS011;8788;49.930;8.660;2022-09-09T11:06:58;2.53;;;1.05;;
17340;SDS011;8788;49.930;8.660;2022-09-09T11:09:33;2.97;;;1.23;;
17340;SDS011;8788;49.930;8.660;2022-09-09T11:12:04;0.77;;;0.60;;
17340;SDS011;8788;49.930;8.660;2022-09-09T11:14:36;3.90;;;1.10;;
17340;SDS011;8788;49.930;8.660;2022-09-09T11:17:09;2.72;;;0.77;;
17340;SDS011;8788;49.930;8.660;2022-09-09T11:19:41;5.93;;;0.80;;
17340;SDS011;8788;49.930;8.660;2022-09-09T11:22:15;1.88;;;0.82;;
17340;SDS011;8788;49.930;8.660;2022-09-09T11:24:49;3.40;;;0.93;;
17340;SDS011;8788;49.930;8.660;2022-09-09T11:27:20;6.68;;;1.00;;
17340;SDS011;8788;49.930;8.660;2022-09-09T11:29:56;0.93;;;0.60;;
17340;SDS011;8788;49.930;8.660;2022-09-09T11:35:42;2.00;;;0.90;;
17340;SDS011;8788;49.930;8.660;2022-09-09T11:38:27;3.50;;;1.33;;
17340;SDS011;8788;49.930;8.660;2022-09-09T11:40:58;2.08;;;0.70;;
17340;SDS011;8788;49.930;8.660;2022-09-09T11:43:28;2.60;;;0.82;;
17340;SDS011;8788;49.930;8.660;2022-09-09T11:45:58;5.20;;;1.35;;
17340;SDS011;8788;49.930;8.660;2022-09-09T11:48:34;2.10;;;0.60;;
17340;SDS011;8788;49.930;8.660;2022-09-09T11:51:04;1.75;;;0.47;;
17340;SDS011;8788;49.930;8.660;2022-09-09T11:53:35;3.05;;;0.68;;
17340;SDS011;8788;49.930;8.660;2022-09-09T11:56:22;3.80;;;0.80;;
17340;SDS011;8788;49.930;8.660;2022-09-09T11:58:56;3.63;;;0.80;;
17340;SDS011;8788;49.930;8.660;2022-09-09T12:01:30;2.33;;;0.80;;
17340;SDS011;8788;49.930;8.660;2022-09-09T12:04:05;2.90;;;0.70;;
17340;SDS011;8788;49.930;8.660;2022-09-09T12:06:45;1.73;;;0.60;;
17340;SDS011;8788;49.930;8.660;2022-09-09T12:09:22;3.33;;;0.68;;
17340;SDS011;8788;49.930;8.660;2022-09-09T12:11:53;1.73;;;0.93;;
17340;SDS011;8788;49.930;8.660;2022-09-09T12:14:36;3.25;;;0.75;;
17340;SDS011;8788;49.930;8.660;2022-09-09T12:17:17;3.65;;;0.70;;
17340;SDS011;8788;49.930;8.660;2022-09-09T12:19:46;1.98;;;1.25;;
17340;SDS011;8788;49.930;8.660;2022-09-09T12:22:16;3.28;;;0.77;;
17340;SDS011;8788;49.930;8.660;2022-09-09T12:24:54;1.45;;;0.70;;
17340;SDS011;8788;49.930;8.660;2022-09-09T12:27:28;2.97;;;0.63;;
17340;SDS011;8788;49.930;8.660;2022-09-09T12:30:03;1.92;;;0.60;;
17340;SDS011;8788;49.930;8.660;2022-09-09T12:32:35;1.58;;;0.88;;
17340;SDS011;8788;49.930;8.660;2022-09-09T12:35:03;3.47;;;0.77;;
17340;SDS011;8788;49.930;8.660;2022-09-09T12:37:37;3.38;;;0.90;;
17340;SDS011;8788;49.930;8.660;2022-09-09T12:40:18;2.55;;;0.57;;
17340;SDS011;8788;49.930;8.660;2022-09-09T12:42:47;2.30;;;0.75;;
17340;SDS011;8788;49.930;8.660;2022-09-09T12:45:15;2.45;;;0.80;;
17340;SDS011;8788;49.930;8.660;2022-09-09T12:47:44;3.00;;;0.43;;
17340;SDS011;8788;49.930;8.660;2022-09-09T12:50:16;1.83;;;0.52;;
17340;SDS011;8788;49.930;8.660;2022-09-09T12:52:46;2.25;;;0.60;;
17340;SDS011;8788;49.930;8.660;2022-09-09T12:55:18;2.60;;;0.50;;
17340;SDS011;8788;49.930;8.660;2022-09-09T12:57:46;3.42;;;0.63;;
17340;SDS011;8788;49.930;8.660;2022-09-09T13:00:17;1.13;;;0.50;;
17340;SDS011;8788;49.930;8.660;2022-09-09T13:02:47;2.22;;;0.60;;
17340;SDS011;8788;49.930;8.660;2022-09-09T13:05:17;1.05;;;0.50;;
17340;SDS011;8788;49.930;8.660;2022-09-09T13:07:46;0.88;;;0.45;;
17340;SDS011;8788;49.930;8.660;2022-09-09T13:10:14;1.27;;;0.30;;
17340;SDS011;8788;49.930;8.660;2022-09-09T13:12:47;0.60;;;0.20;;
17340;SDS011;8788;49.930;8.660;2022-09-09T13:15:17;1.40;;;0.20;;
17340;SDS011;8788;49.930;8.660;2022-09-09T13:17:52;0.70;;;0.20;;
17340;SDS011;8788;49.930;8.660;2022-09-09T13:20:20;1.35;;;0.20;;
17340;SDS011;8788;49.930;8.660;2022-09-09T13:22:49;0.55;;;0.17;;
17340;SDS011;8788;49.930;8.660;2022-09-09T13:25:19;0.28;;;0.10;;
17340;SDS011;8788;49.930;8.660;2022-09-09T13:27:55;0.50;;;0.32;;
17340;SDS011;8788;49.930;8.660;2022-09-09T13:30:25;0.13;;;0.10;;
17340;SDS011;8788;49.930;8.660;2022-09-09T13:33:02;0.10;;;0.10;;
17340;SDS011;8788;49.930;8.660;2022-09-09T13:35:32;0.45;;;0.30;;
17340;SDS011;8788;49.930;8.660;2022-09-09T13:38:06;0.90;;;0.30;;
17340;SDS011;8788;49.930;8.660;2022-09-09T13:40:34;0.55;;;0.40;;
17340;SDS011;8788;49.930;8.660;2022-09-09T13:43:03;0.10;;;0.10;;
17340;SDS011;8788;49.930;8.660;2022-09-09T13:45:30;0.45;;;0.30;;
17340;SDS011;8788;49.930;8.660;2022-09-09T13:48:07;0.68;;;0.20;;
17340;SDS011;8788;49.930;8.660;2022-09-09T13:50:36;1.20;;;0.20;;
17340;SDS011;8788;49.930;8.660;2022-09-09T13:53:03;0.22;;;0.13;;
17340;SDS011;8788;49.930;8.660;2022-09-09T13:55:30;1.30;;;0.20;;
17340;SDS011;8788;49.930;8.660;2022-09-09T13:57:58;0.60;;;0.30;;
17340;SDS011;8788;49.930;8.660;2022-09-09T14:00:30;0.60;;;0.20;;
17340;SDS011;8788;49.930;8.660;2022-09-09T14:02:57;0.75;;;0.20;;
17340;SDS011;8788;49.930;8.660;2022-09-09T14:05:27;3.17;;;0.43;;
17340;SDS011;8788;49.930;8.660;2022-09-09T14:07:54;4.10;;;0.40;;
17340;SDS011;8788;49.930;8.660;2022-09-09T14:10:22;0.52;;;0.30;;
17340;SDS011;8788;49.930;8.660;2022-09-09T14:12:49;1.83;;;0.20;;
17340;SDS011;8788;49.930;8.660;2022-09-09T14:15:16;1.42;;;0.50;;
17340;SDS011;8788;49.930;8.660;2022-09-09T14:17:45;1.05;;;0.47;;
17340;SDS011;8788;49.930;8.660;2022-09-09T14:20:13;0.43;;;0.20;;
17340;SDS011;8788;49.930;8.660;2022-09-09T14:22:42;0.28;;;0.20;;
17340;SDS011;8788;49.930;8.660;2022-09-09T14:25:10;0.10;;;0.10;;
17340;SDS011;8788;49.930;8.660;2022-09-09T14:27:38;1.05;;;0.50;;
17340;SDS011;8788;49.930;8.660;2022-09-09T14:30:06;0.32;;;0.32;;
17340;SDS011;8788;49.930;8.660;2022-09-09T14:32:34;1.45;;;0.40;;
17340;SDS011;8788;49.930;8.660;2022-09-09T14:35:03;1.75;;;0.50;;
17340;SDS011;8788;49.930;8.660;2022-09-09T14:37:30;0.70;;;0.35;;
17340;SDS011;8788;49.930;8.660;2022-09-09T14:39:57;0.55;;;0.50;;
17340;SDS011;8788;49.930;8.660;2022-09-09T14:42:24;5.53;;;0.60;;
17340;SDS011;8788;49.930;8.660;2022-09-09T14:44:52;1.88;;;0.57;;
17340;SDS011;8788;49.930;8.660;2022-09-09T14:47:19;2.28;;;0.40;;
17340;SDS011;8788;49.930;8.660;2022-09-09T14:49:46;2.15;;;0.43;;
17340;SDS011;8788;49.930;8.660;2022-09-09T14:52:16;1.42;;;0.50;;
17340;SDS011;8788;49.930;8.660;2022-09-09T14:54:43;2.33;;;0.50;;
17340;SDS011;8788;49.930;8.660;2022-09-09T14:57:10;1.92;;;0.40;;
17340;SDS011;8788;49.930;8.660;2022-09-09T14:59:37;0.95;;;0.28;;
17340;SDS011;8788;49.930;8.660;2022-09-09T15:02:04;2.50;;;0.40;;
17340;SDS011;8788;49.930;8.660;2022-09-09T15:04:31;1.45;;;0.43;;
17340;SDS011;8788;49.930;8.660;2022-09-09T15:06:58;1.85;;;0.50;;
17340;SDS011;8788;49.930;8.660;2022-09-09T15:09:27;1.50;;;0.57;;
17340;SDS011;8788;49.930;8.660;2022-09-09T15:11:54;1.00;;;0.57;;
17340;SDS011;8788;49.930;8.660;2022-09-09T15:14:21;0.95;;;0.30;;
17340;SDS011;8788;49.930;8.660;2022-09-09T15:16:48;1.15;;;0.40;;
17340;SDS011;8788;49.930;8.660;2022-09-09T15:19:15;1.80;;;0.57;;
17340;SDS011;8788;49.930;8.660;2022-09-09T15:21:42;1.63;;;0.40;;
17340;SDS011;8788;49.930;8.660;2022-09-09T15:24:09;1.48;;;0.45;;
17340;SDS011;8788;49.930;8.660;2022-09-09T15:26:39;1.42;;;0.75;;
17340;SDS011;8788;49.930;8.660;2022-09-09T15:29:07;2.70;;;0.60;;
17340;SDS011;8788;49.930;8.660;2022-09-09T15:31:34;0.63;;;0.40;;
17340;SDS011;8788;49.930;8.660;2022-09-09T15:34:02;0.47;;;0.35;;
17340;SDS011;8788;49.930;8.660;2022-09-09T15:36:30;0.82;;;0.30;;
17340;SDS011;8788;49.930;8.660;2022-09-09T15:38:59;1.38;;;0.32;;
17340;SDS011;8788;49.930;8.660;2022-09-09T15:41:27;0.28;;;0.22;;
17340;SDS011;8788;49.930;8.660;2022-09-09T15:43:58;1.40;;;0.50;;
17340;SDS011;8788;49.930;8.660;2022-09-09T15:46:27;0.88;;;0.38;;
17340;SDS011;8788;49.930;8.660;2022-09-09T15:48:56;1.30;;;0.30;;
17340;SDS011;8788;49.930;8.660;2022-09-09T15:51:25;1.08;;;0.50;;
17340;SDS011;8788;49.930;8.660;2022-09-09T15:53:56;1.55;;;0.43;;
17340;SDS011;8788;49.930;8.660;2022-09-09T15:56:24;2.25;;;0.57;;
17340;SDS011;8788;49.930;8.660;2022-09-09T15:58:52;2.63;;;0.50;;
17340;SDS011;8788;49.930;8.660;2022-09-09T16:01:21;1.65;;;0.55;;
17340;SDS011;8788;49.930;8.660;2022-09-09T16:03:48;2.47;;;0.45;;
17340;SDS011;8788;49.930;8.660;2022-09-09T16:06:16;1.48;;;0.30;;
17340;SDS011;8788;49.930;8.660;2022-09-09T16:08:47;1.65;;;0.60;;
17340;SDS011;8788;49.930;8.660;2022-09-09T16:11:16;1.60;;;0.60;;
17340;SDS011;8788;49.930;8.660;2022-09-09T16:13:45;3.90;;;0.40;;
17340;SDS011;8788;49.930;8.660;2022-09-09T16:16:14;1.85;;;0.40;;
17340;SDS011;8788;49.930;8.660;2022-09-09T16:18:44;1.00;;;0.77;;
17340;SDS011;8788;49.930;8.660;2022-09-09T16:21:14;1.85;;;0.57;;
17340;SDS011;8788;49.930;8.660;2022-09-09T16:23:43;3.20;;;0.68;;
17340;SDS011;8788;49.930;8.660;2022-09-09T16:26:11;2.47;;;0.55;;
17340;SDS011;8788;49.930;8.660;2022-09-09T16:28:40;1.15;;;0.50;;
17340;SDS011;8788;49.930;8.660;2022-09-09T16:31:07;0.50;;;0.30;;
17340;SDS011;8788;49.930;8.660;2022-09-09T16:33:37;0.50;;;0.35;;
17340;SDS011;8788;49.930;8.660;2022-09-09T16:36:09;1.75;;;0.60;;
17340;SDS011;8788;49.930;8.660;2022-09-09T16:38:38;0.80;;;0.47;;
17340;SDS011;8788;49.930;8.660;2022-09-09T16:41:05;1.05;;;0.35;;
17340;SDS011;8788;49.930;8.660;2022-09-09T16:43:33;1.38;;;0.30;;
17340;SDS011;8788;49.930;8.660;2022-09-09T16:46:01;1.17;;;0.28;;
17340;SDS011;8788;49.930;8.660;2022-09-09T16:48:30;1.02;;;0.40;;
17340;SDS011;8788;49.930;8.660;2022-09-09T16:51:01;0.85;;;0.30;;
17340;SDS011;8788;49.930;8.660;2022-09-09T16:53:31;1.10;;;0.45;;
17340;SDS011;8788;49.930;8.660;2022-09-09T16:56:04;1.05;;;0.40;;
17340;SDS011;8788;49.930;8.660;2022-09-09T16:58:32;1.15;;;0.20;;
17340;SDS011;8788;49.930;8.660;2022-09-09T17:00:59;0.75;;;0.40;;
17340;SDS011;8788;49.930;8.660;2022-09-09T17:03:27;1.98;;;0.30;;
17340;SDS011;8788;49.930;8.660;2022-09-09T17:05:54;0.50;;;0.25;;
17340;SDS011;8788;49.930;8.660;2022-09-09T17:08:23;0.80;;;0.30;;
17340;SDS011;8788;49.930;8.660;2022-09-09T17:10:51;2.17;;;0.70;;
17340;SDS011;8788;49.930;8.660;2022-09-09T17:13:18;1.45;;;0.50;;
17340;SDS011;8788;49.930;8.660;2022-09-09T17:15:45;1.85;;;0.47;;
17340;SDS011;8788;49.930;8.660;2022-09-09T17:18:12;2.42;;;0.70;;
17340;SDS011;8788;49.930;8.660;2022-09-09T17:20:41;2.58;;;0.40;;
17340;SDS011;8788;49.930;8.660;2022-09-09T17:23:09;1.50;;;0.70;;
17340;SDS011;8788;49.930;8.660;2022-09-09T17:25:38;1.58;;;0.70;;
17340;SDS011;8788;49.930;8.660;2022-09-09T17:28:06;1.90;;;0.70;;
17340;SDS011;8788;49.930;8.660;2022-09-09T17:30:34;1.55;;;0.52;;
17340;SDS011;8788;49.930;8.660;2022-09-09T17:33:02;1.05;;;0.43;;
17340;SDS011;8788;49.930;8.660;2022-09-09T17:35:31;1.70;;;0.60;;
17340;SDS011;8788;49.930;8.660;2022-09-09T17:37:59;2.83;;;0.60;;
17340;SDS011;8788;49.930;8.660;2022-09-09T17:40:26;2.83;;;0.50;;
17340;SDS011;8788;49.930;8.660;2022-09-09T17:42:55;2.97;;;0.65;;
17340;SDS011;8788;49.930;8.660;2022-09-09T17:45:24;3.45;;;0.65;;
17340;SDS011;8788;49.930;8.660;2022-09-09T17:47:54;2.15;;;0.60;;
17340;SDS011;8788;49.930;8.660;2022-09-09T17:50:21;1.13;;;0.50;;
17340;SDS011;8788;49.930;8.660;2022-09-09T17:52:49;0.88;;;0.30;;
17340;SDS011;8788;49.930;8.660;2022-09-09T17:55:16;2.53;;;0.80;;
17340;SDS011;8788;49.930;8.660;2022-09-09T17:57:43;1.35;;;0.55;;
17340;SDS011;8788;49.930;8.660;2022-09-09T18:00:11;2.30;;;0.73;;
17340;SDS011;8788;49.930;8.660;2022-09-09T18:02:40;1.52;;;0.52;;
17340;SDS011;8788;49.930;8.660;2022-09-09T18:05:08;3.05;;;0.63;;
17340;SDS011;8788;49.930;8.660;2022-09-09T18:07:35;2.92;;;0.65;;
17340;SDS011;8788;49.930;8.660;2022-09-09T18:10:03;1.45;;;0.35;;
17340;SDS011;8788;49.930;8.660;2022-09-09T18:12:30;1.23;;;0.60;;
17340;SDS011;8788;49.930;8.660;2022-09-09T18:14:57;0.63;;;0.52;;
17340;SDS011;8788;49.930;8.660;2022-09-09T18:17:24;0.73;;;0.32;;
17340;SDS011;8788;49.930;8.660;2022-09-09T18:19:53;0.93;;;0.60;;
17340;SDS011;8788;49.930;8.660;2022-09-09T18:22:20;4.50;;;0.60;;
17340;SDS011;8788;49.930;8.660;2022-09-09T18:24:47;2.33;;;0.55;;
17340;SDS011;8788;49.930;8.660;2022-09-09T18:27:14;0.77;;;0.40;;
17340;SDS011;8788;49.930;8.660;2022-09-09T18:29:41;1.00;;;0.50;;
17340;SDS011;8788;49.930;8.660;2022-09-09T18:32:08;0.68;;;0.50;;
17340;SDS011;8788;49.930;8.660;2022-09-09T18:34:35;0.77;;;0.40;;
17340;SDS011;8788;49.930;8.660;2022-09-09T18:37:04;1.55;;;0.55;;
17340;SDS011;8788;49.930;8.660;2022-09-09T18:39:32;3.35;;;0.63;;
17340;SDS011;8788;49.930;8.660;2022-09-09T18:41:59;2.58;;;0.50;;
17340;SDS011;8788;49.930;8.660;2022-09-09T18:44:28;0.25;;;0.25;;
17340;SDS011;8788;49.930;8.660;2022-09-09T18:46:56;0.20;;;0.20;;
17340;SDS011;8788;49.930;8.660;2022-09-09T18:49:24;1.20;;;0.40;;
17340;SDS011;8788;49.930;8.660;2022-09-09T18:51:51;0.60;;;0.40;;
17340;SDS011;8788;49.930;8.660;2022-09-09T18:54:21;1.85;;;0.30;;
17340;SDS011;8788;49.930;8.660;2022-09-09T18:56:49;3.17;;;0.45;;
17340;SDS011;8788;49.930;8.660;2022-09-09T18:59:18;2.00;;;0.40;;
17340;SDS011;8788;49.930;8.660;2022-09-09T19:01:46;0.80;;;0.60;;
17340;SDS011;8788;49.930;8.660;2022-09-09T19:04:14;2.15;;;1.00;;
17340;SDS011;8788;49.930;8.660;2022-09-09T19:06:43;1.90;;;0.65;;
17340;SDS011;8788;49.930;8.660;2022-09-09T19:09:11;1.48;;;0.60;;
17340;SDS011;8788;49.930;8.660;2022-09-09T19:11:41;3.00;;;0.70;;
17340;SDS011;8788;49.930;8.660;2022-09-09T19:14:09;2.78;;;0.68;;
17340;SDS011;8788;49.930;8.660;2022-09-09T19:16:38;0.63;;;0.63;;
17340;SDS011;8788;49.930;8.660;2022-09-09T19:19:06;1.05;;;0.47;;
17340;SDS011;8788;49.930;8.660;2022-09-09T19:21:35;1.25;;;0.82;;
17340;SDS011;8788;49.930;8.660;2022-09-09T19:24:04;1.65;;;0.60;;
17340;SDS011;8788;49.930;8.660;2022-09-09T19:26:33;2.20;;;0.50;;
17340;SDS011;8788;49.930;8.660;2022-09-09T19:29:06;4.43;;;0.57;;